createdAt,value
2023-02-11T00:04:40.453Z,36.80
2023-02-11T00:09:42.186Z,36.89
2023-02-11T00:14:43.912Z,36.25
2023-02-11T00:19:49.811Z,36.84
2023-02-11T00:24:51.586Z,41.21
2023-02-11T00:29:53.434Z,38.59
2023-02-11T00:34:55.476Z,38.59
2023-02-11T00:39:57.207Z,38.75
2023-02-11T00:44:58.922Z,43.04
2023-02-11T00:50:00.996Z,40.55
2023-02-11T00:55:03.078Z,40.85
2023-02-11T01:00:06.195Z,40.80
2023-02-11T01:05:08.458Z,41.25
2023-02-11T01:10:10.804Z,39.18
2023-02-11T01:15:17.003Z,39.80
2023-02-11T01:20:22.837Z,38.58
2023-02-11T01:25:25.112Z,37.45
2023-02-11T01:30:26.866Z,36.80
2023-02-11T01:35:28.550Z,37.09
2023-02-11T01:40:31.248Z,36.47
2023-02-11T01:45:46.177Z,35.96
2023-02-11T01:50:53.066Z,35.65
2023-02-11T01:56:15.419Z,35.89
2023-02-11T02:01:21.678Z,35.94
2023-02-11T02:06:30.425Z,37.62
2023-02-11T02:11:32.566Z,37.66
2023-02-11T02:16:36.886Z,36.75
2023-02-11T02:22:00.289Z,36.40
2023-02-11T02:27:53.122Z,37.48
2023-02-11T02:33:24.949Z,36.87
2023-02-11T02:38:48.870Z,38.17
2023-02-11T02:43:51.811Z,37.08
2023-02-11T02:48:55.054Z,37.74
2023-02-11T02:54:21.551Z,37.10
2023-02-11T03:00:08.174Z,36.66
2023-02-11T03:05:28.749Z,37.96
2023-02-11T03:10:36.301Z,39.14
2023-02-11T03:15:43.144Z,38.61
2023-02-11T03:20:49.566Z,38.49
2023-02-11T03:26:09.039Z,38.47
2023-02-11T03:31:15.138Z,37.53
2023-02-11T03:36:27.460Z,36.58
2023-02-11T03:41:31.541Z,38.00
2023-02-11T03:46:38.050Z,37.34
2023-02-11T03:51:40.837Z,36.38
2023-02-11T03:56:53.043Z,35.88
2023-02-11T04:01:55.030Z,37.61
2023-02-11T04:06:57.656Z,36.42
2023-02-11T04:11:59.469Z,37.71
2023-02-11T04:17:01.369Z,36.99
2023-02-11T04:22:03.498Z,35.97
2023-02-11T04:27:05.231Z,35.77
2023-02-11T04:32:07.477Z,36.00
2023-02-11T04:37:09.488Z,38.16
2023-02-11T04:42:11.338Z,38.91
2023-02-11T04:47:15.289Z,38.62
2023-02-11T04:52:17.070Z,37.96
2023-02-11T04:57:18.830Z,37.40
2023-02-11T05:02:20.622Z,36.56
2023-02-11T05:07:22.498Z,35.84
2023-02-11T05:12:24.254Z,36.15
2023-02-11T05:17:26.096Z,35.66
2023-02-11T05:22:27.876Z,35.64
2023-02-11T05:27:29.640Z,35.71
2023-02-11T05:32:31.637Z,35.24
2023-02-11T05:37:33.561Z,35.25
2023-02-11T05:42:35.435Z,35.91
2023-02-11T05:47:37.264Z,35.44
2023-02-11T05:52:39.025Z,39.37
2023-02-11T05:57:41.135Z,37.89
2023-02-11T06:02:42.956Z,36.46
2023-02-11T06:07:45.021Z,37.07
2023-02-11T06:12:46.946Z,36.45
2023-02-11T06:17:48.758Z,37.00
2023-02-11T06:22:50.604Z,35.56
2023-02-11T06:27:52.409Z,35.67
2023-02-11T06:32:54.930Z,35.20
2023-02-11T06:37:56.726Z,36.32
2023-02-11T06:42:58.539Z,35.53
2023-02-11T06:48:00.322Z,36.74
2023-02-11T06:53:02.301Z,36.89
2023-02-11T06:58:04.075Z,36.13
2023-02-11T07:03:05.833Z,38.08
2023-02-11T07:08:07.615Z,37.68
2023-02-11T07:13:09.381Z,36.03
2023-02-11T07:18:13.053Z,35.60
2023-02-11T07:23:16.262Z,38.71
2023-02-11T07:28:18.054Z,37.23
2023-02-11T07:33:20.078Z,37.11
2023-02-11T07:38:21.894Z,35.87
2023-02-11T07:43:23.659Z,36.75
2023-02-11T07:48:25.468Z,37.24
2023-02-11T07:53:27.219Z,35.41
2023-02-11T07:58:29.008Z,38.42
2023-02-11T08:03:32.278Z,36.74
2023-02-11T08:08:34.355Z,38.18
2023-02-11T08:13:36.855Z,38.90
2023-02-11T08:18:38.560Z,36.86
2023-02-11T08:23:42.967Z,36.67
2023-02-11T08:28:46.244Z,39.76
2023-02-11T08:33:48.389Z,37.37
2023-02-11T08:38:50.440Z,37.15
2023-02-11T08:43:52.375Z,36.42
2023-02-11T08:48:54.234Z,35.98
2023-02-11T08:53:56.567Z,35.49
2023-02-11T08:58:58.451Z,34.33
2023-02-11T09:04:01.121Z,35.47
2023-02-11T09:09:02.987Z,35.33
2023-02-11T09:14:05.199Z,36.85
2023-02-11T09:19:07.064Z,36.72
2023-02-11T09:24:08.916Z,37.39
2023-02-11T09:29:10.936Z,40.66
2023-02-11T09:34:13.158Z,44.48
2023-02-11T09:39:17.899Z,42.40
2023-02-11T09:44:26.770Z,40.79
2023-02-11T09:49:40.888Z,39.72
2023-02-11T09:55:01.871Z,38.65
2023-02-11T10:00:27.142Z,38.12
2023-02-11T10:05:31.787Z,38.96
2023-02-11T10:10:59.433Z,45.93
2023-02-11T10:16:19.884Z,50.08
2023-02-11T10:21:50.517Z,51.60
2023-02-11T10:26:52.572Z,46.04
2023-02-11T10:31:57.861Z,45.51
2023-02-11T10:37:00.388Z,44.56
2023-02-11T10:42:08.695Z,41.93
2023-02-11T10:47:21.176Z,41.52
2023-02-11T10:52:30.483Z,40.93
2023-02-11T10:57:44.680Z,41.20
2023-02-11T11:02:54.432Z,40.53
2023-02-11T11:07:59.560Z,40.55
2023-02-11T11:13:01.516Z,38.75
2023-02-11T11:18:21.281Z,38.33
2023-02-11T11:23:25.058Z,40.65
2023-02-11T11:28:29.916Z,41.76
2023-02-11T11:33:35.644Z,40.66
2023-02-11T11:38:52.335Z,42.24
2023-02-11T11:43:55.480Z,38.74
2023-02-11T11:49:04.777Z,36.44
2023-02-11T11:54:12.097Z,34.34
2023-02-11T11:59:16.487Z,35.90
2023-02-11T12:04:59.515Z,35.41
2023-02-11T12:10:31.283Z,38.05
2023-02-11T12:15:58.985Z,37.03
2023-02-11T12:21:11.743Z,35.62
2023-02-11T12:26:24.222Z,32.53
2023-02-11T12:31:26.119Z,34.73
2023-02-11T12:36:56.024Z,37.20
2023-02-11T12:42:39.190Z,36.25
2023-02-11T12:47:53.137Z,33.01
2023-02-11T12:53:19.400Z,32.46
2023-02-11T12:58:32.637Z,31.52
2023-02-11T13:04:09.303Z,33.26
2023-02-11T13:09:18.995Z,33.25
2023-02-11T13:14:23.936Z,34.30
2023-02-11T13:19:34.835Z,34.38
2023-02-11T13:24:51.589Z,33.60
2023-02-11T13:30:13.898Z,33.58
2023-02-11T13:35:33.473Z,34.77
2023-02-11T13:40:37.986Z,32.54
2023-02-11T13:45:44.998Z,30.40
2023-02-11T13:50:50.079Z,30.59
2023-02-11T13:56:07.735Z,30.85
2023-02-11T14:01:09.744Z,31.73
2023-02-11T14:06:31.805Z,31.84
2023-02-11T14:11:33.574Z,31.66
2023-02-11T14:16:38.257Z,30.75
2023-02-11T14:21:44.095Z,27.59
2023-02-11T14:27:04.314Z,30.78
2023-02-11T14:32:17.815Z,33.10
2023-02-11T14:37:27.196Z,33.12
2023-02-11T14:42:31.251Z,30.80
2023-02-11T14:47:43.684Z,29.84
2023-02-11T14:52:46.268Z,33.39
2023-02-11T14:57:50.900Z,30.95
2023-02-11T15:02:53.627Z,28.51
2023-02-11T15:07:59.638Z,32.96
2023-02-11T15:13:03.557Z,29.51
2023-02-11T15:18:05.754Z,29.03
2023-02-11T15:23:16.954Z,27.84
2023-02-11T15:28:29.002Z,33.38
2023-02-11T15:33:32.324Z,34.57
2023-02-11T15:38:34.241Z,35.81
2023-02-11T15:43:54.122Z,32.69
2023-02-11T15:48:56.160Z,33.76
2023-02-11T15:54:08.105Z,32.94
2023-02-11T15:59:25.707Z,35.80
2023-02-11T16:04:28.185Z,30.72
2023-02-11T16:09:36.555Z,29.74
2023-02-11T16:14:41.179Z,27.01
2023-02-11T16:19:46.144Z,27.43
2023-02-11T16:24:51.212Z,32.98
2023-02-11T16:29:53.367Z,32.49
2023-02-11T16:34:58.016Z,29.69
2023-02-11T16:39:59.875Z,28.50
2023-02-11T16:45:02.090Z,28.21
2023-02-11T16:50:04.565Z,28.24
2023-02-11T16:55:06.677Z,30.04
2023-02-11T17:00:09.106Z,32.01
2023-02-11T17:05:20.433Z,32.32
2023-02-11T17:10:23.653Z,33.89
2023-02-11T17:15:25.522Z,35.14
2023-02-11T17:20:27.387Z,32.86
2023-02-11T17:25:29.287Z,34.44
2023-02-11T17:30:31.224Z,33.81
2023-02-11T17:35:33.024Z,34.17
2023-02-11T17:40:34.887Z,33.07
2023-02-11T17:45:41.595Z,33.70
2023-02-11T17:50:43.664Z,34.76
2023-02-11T17:55:45.553Z,36.12
2023-02-11T18:00:47.410Z,35.76
2023-02-11T18:05:49.609Z,38.11
2023-02-11T18:10:51.690Z,36.16
2023-02-11T18:15:53.723Z,38.28
2023-02-11T18:21:00.178Z,34.94
2023-02-11T18:26:02.978Z,37.05
2023-02-11T18:31:05.924Z,40.02
2023-02-11T18:36:10.259Z,35.78
2023-02-11T18:41:13.445Z,34.61
2023-02-11T18:46:16.410Z,34.78
2023-02-11T18:51:18.814Z,36.38
2023-02-11T18:56:23.054Z,33.12
2023-02-11T19:01:29.304Z,33.27
2023-02-11T19:06:34.526Z,33.32
2023-02-11T19:11:47.591Z,34.95
2023-02-11T19:16:51.550Z,36.09
2023-02-11T19:21:54.777Z,35.03
2023-02-11T19:26:58.947Z,34.40
2023-02-11T19:32:05.858Z,34.40
2023-02-11T19:37:12.649Z,35.19
2023-02-11T19:42:15.160Z,37.18
2023-02-11T19:47:17.846Z,36.28
2023-02-11T19:52:19.899Z,35.98
2023-02-11T19:57:21.835Z,36.35
2023-02-11T20:02:23.777Z,35.39
2023-02-11T20:07:25.642Z,31.93
2023-02-11T20:12:27.573Z,33.51
2023-02-11T20:17:29.366Z,32.05
2023-02-11T20:22:32.412Z,31.98
2023-02-11T20:27:34.212Z,30.33
2023-02-11T20:32:38.418Z,30.86
2023-02-11T20:37:43.786Z,34.65
2023-02-11T20:42:45.987Z,38.06
2023-02-11T20:47:47.869Z,36.96
2023-02-11T20:52:49.828Z,37.73
2023-02-11T20:57:51.626Z,36.93
2023-02-11T21:02:53.752Z,35.03
2023-02-11T21:07:55.638Z,34.37
2023-02-11T21:12:57.627Z,34.77
2023-02-11T21:17:59.406Z,32.73
2023-02-11T21:23:01.135Z,37.88
2023-02-11T21:28:03.052Z,35.49
2023-02-11T21:33:05.960Z,35.28
2023-02-11T21:38:07.819Z,36.23
2023-02-11T21:43:09.559Z,35.83
2023-02-11T21:48:12.224Z,39.22
2023-02-11T21:53:14.948Z,37.45
2023-02-11T21:58:16.943Z,36.93
2023-02-11T22:03:18.742Z,35.70
2023-02-11T22:08:20.511Z,36.32
2023-02-11T22:13:22.304Z,37.06
2023-02-11T22:18:24.100Z,33.93
2023-02-11T22:23:25.876Z,33.34
2023-02-11T22:28:27.767Z,34.87
2023-02-11T22:33:29.488Z,34.97
2023-02-11T22:38:32.766Z,35.77
2023-02-11T22:43:34.716Z,36.74
2023-02-11T22:48:36.608Z,37.90
2023-02-11T22:53:38.623Z,38.29
2023-02-11T22:58:40.518Z,36.67
2023-02-11T23:03:42.712Z,37.80
2023-02-11T23:08:44.787Z,35.60
2023-02-11T23:13:48.167Z,36.30
2023-02-11T23:18:50.939Z,34.18
2023-02-11T23:23:58.222Z,33.80
2023-02-11T23:29:00.283Z,38.17
2023-02-11T23:34:02.074Z,36.22
2023-02-11T23:39:04.759Z,36.60
2023-02-11T23:44:06.597Z,35.62
2023-02-11T23:49:08.434Z,37.60
2023-02-11T23:54:14.625Z,36.70
2023-02-11T23:59:17.071Z,39.42
